sensor_id;sensor_type;location;lat;lon;timestamp;temperature;humidity
19728;DHT22;10015;52.530;13.390;2023-04-06T00:02:18;7.30;99.90
19728;DHT22;10015;52.530;13.390;2023-04-06T00:04:44;7.30;99.90
19728;DHT22;10015;52.530;13.390;2023-04-06T00:07:10;7.30;99.90
19728;DHT22;10015;52.530;13.390;2023-04-06T00:09:36;7.30;99.90
19728;DHT22;10015;52.530;13.390;2023-04-06T00:12:02;7.40;99.90
19728;DHT22;10015;52.530;13.390;2023-04-06T00:14:28;7.30;99.90
19728;DHT22;10015;52.530;13.390;2023-04-06T00:16:55;7.20;99.90
19728;DHT22;10015;52.530;13.390;2023-04-06T00:19:21;6.90;99.90
19728;DHT22;10015;52.530;13.390;2023-04-06T00:21:47;6.80;99.90
19728;DHT22;10015;52.530;13.390;2023-04-06T00:24:15;6.50;99.90
19728;DHT22;10015;52.530;13.390;2023-04-06T00:26:41;6.60;99.90
19728;DHT22;10015;52.530;13.390;2023-04-06T00:29:08;6.40;99.90
19728;DHT22;10015;52.530;13.390;2023-04-06T00:31:34;6.40;99.90
19728;DHT22;10015;52.530;13.390;2023-04-06T00:34:01;6.50;99.90
19728;DHT22;10015;52.530;13.390;2023-04-06T00:36:27;6.50;99.90
19728;DHT22;10015;52.530;13.390;2023-04-06T00:38:53;6.60;99.90
19728;DHT22;10015;52.530;13.390;2023-04-06T00:41:19;6.30;99.90
19728;DHT22;10015;52.530;13.390;2023-04-06T00:43:46;6.40;99.90
19728;DHT22;10015;52.530;13.390;2023-04-06T00:46:12;6.60;99.90
19728;DHT22;10015;52.530;13.390;2023-04-06T00:48:38;6.60;99.90
19728;DHT22;10015;52.530;13.390;2023-04-06T00:51:05;6.70;99.90
19728;DHT22;10015;52.530;13.390;2023-04-06T00:53:31;6.80;99.90
19728;DHT22;10015;52.530;13.390;2023-04-06T00:55:59;6.80;99.90
19728;DHT22;10015;52.530;13.390;2023-04-06T00:58:26;6.60;99.90
19728;DHT22;10015;52.530;13.390;2023-04-06T01:01:01;6.70;99.90
19728;DHT22;10015;52.530;13.390;2023-04-06T01:03:27;6.70;99.90
19728;DHT22;10015;52.530;13.390;2023-04-06T01:05:54;6.70;99.90
19728;DHT22;10015;52.530;13.390;2023-04-06T01:08:28;6.60;99.90
19728;DHT22;10015;52.530;13.390;2023-04-06T01:11:07;6.50;99.90
19728;DHT22;10015;52.530;13.390;2023-04-06T01:13:33;6.60;99.90
19728;DHT22;10015;52.530;13.390;2023-04-06T01:16:03;6.60;99.90
19728;DHT22;10015;52.530;13.390;2023-04-06T01:19:12;6.40;99.90
19728;DHT22;10015;52.530;13.390;2023-04-06T01:21:43;6.40;99.90
19728;DHT22;10015;52.530;13.390;2023-04-06T01:24:35;6.30;99.90
19728;DHT22;10015;52.530;13.390;2023-04-06T01:27:27;6.00;99.90
19728;DHT22;10015;52.530;13.390;2023-04-06T01:29:56;5.90;99.90
19728;DHT22;10015;52.530;13.390;2023-04-06T01:32:58;5.90;99.90
19728;DHT22;10015;52.530;13.390;2023-04-06T01:35:59;5.90;99.90
19728;DHT22;10015;52.530;13.390;2023-04-06T01:38:26;6.10;99.90
19728;DHT22;10015;52.530;13.390;2023-04-06T01:40:55;6.10;99.90
19728;DHT22;10015;52.530;13.390;2023-04-06T01:43:23;5.90;99.90
19728;DHT22;10015;52.530;13.390;2023-04-06T01:46:18;6.00;99.90
19728;DHT22;10015;52.530;13.390;2023-04-06T01:48:44;6.20;99.90
19728;DHT22;10015;52.530;13.390;2023-04-06T01:51:19;6.10;99.90
19728;DHT22;10015;52.530;13.390;2023-04-06T01:53:51;5.80;99.90
19728;DHT22;10015;52.530;13.390;2023-04-06T01:56:20;5.60;99.90
19728;DHT22;10015;52.530;13.390;2023-04-06T01:58:57;5.50;99.90
19728;DHT22;10015;52.530;13.390;2023-04-06T02:01:25;5.80;99.90
19728;DHT22;10015;52.530;13.390;2023-04-06T02:03:55;6.00;99.90
19728;DHT22;10015;52.530;13.390;2023-04-06T02:06:21;6.00;99.90
19728;DHT22;10015;52.530;13.390;2023-04-06T02:08:48;6.10;99.90
19728;DHT22;10015;52.530;13.390;2023-04-06T02:11:14;6.10;99.90
19728;DHT22;10015;52.530;13.390;2023-04-06T02:13:46;6.20;99.90
19728;DHT22;10015;52.530;13.390;2023-04-06T02:16:12;5.90;99.90
19728;DHT22;10015;52.530;13.390;2023-04-06T02:18:38;5.80;99.90
19728;DHT22;10015;52.530;13.390;2023-04-06T02:21:05;5.90;99.90
19728;DHT22;10015;52.530;13.390;2023-04-06T02:23:31;5.80;99.90
19728;DHT22;10015;52.530;13.390;2023-04-06T02:25:57;5.60;99.90
19728;DHT22;10015;52.530;13.390;2023-04-06T02:28:23;5.50;99.90
19728;DHT22;10015;52.530;13.390;2023-04-06T02:30:49;5.40;99.90
19728;DHT22;10015;52.530;13.390;2023-04-06T02:33:16;5.30;99.90
19728;DHT22;10015;52.530;13.390;2023-04-06T02:35:46;5.30;99.90
19728;DHT22;10015;52.530;13.390;2023-04-06T02:38:12;5.50;99.90
19728;DHT22;10015;52.530;13.390;2023-04-06T02:40:38;5.70;99.90
19728;DHT22;10015;52.530;13.390;2023-04-06T02:43:24;5.80;99.90
19728;DHT22;10015;52.530;13.390;2023-04-06T02:45:56;5.90;99.90
19728;DHT22;10015;52.530;13.390;2023-04-06T02:48:24;6.00;99.90
19728;DHT22;10015;52.530;13.390;2023-04-06T02:50:52;6.10;99.90
19728;DHT22;10015;52.530;13.390;2023-04-06T02:53:18;6.10;99.90
19728;DHT22;10015;52.530;13.390;2023-04-06T02:55:44;6.00;99.90
19728;DHT22;10015;52.530;13.390;2023-04-06T02:58:10;5.90;99.90
19728;DHT22;10015;52.530;13.390;2023-04-06T03:00:43;5.60;99.90
19728;DHT22;10015;52.530;13.390;2023-04-06T03:03:10;5.60;99.90
19728;DHT22;10015;52.530;13.390;2023-04-06T03:05:36;5.60;99.90
19728;DHT22;10015;52.530;13.390;2023-04-06T03:08:03;5.50;99.90
19728;DHT22;10015;52.530;13.390;2023-04-06T03:10:38;5.60;99.90
19728;DHT22;10015;52.530;13.390;2023-04-06T03:13:05;5.10;99.90
19728;DHT22;10015;52.530;13.390;2023-04-06T03:15:42;4.70;99.90
19728;DHT22;10015;52.530;13.390;2023-04-06T03:18:15;4.70;99.90
19728;DHT22;10015;52.530;13.390;2023-04-06T03:20:47;4.40;99.90
19728;DHT22;10015;52.530;13.390;2023-04-06T03:23:15;4.40;99.90
19728;DHT22;10015;52.530;13.390;2023-04-06T03:25:43;4.30;99.90
19728;DHT22;10015;52.530;13.390;2023-04-06T03:28:14;4.40;99.90
19728;DHT22;10015;52.530;13.390;2023-04-06T03:30:54;4.30;99.90
19728;DHT22;10015;52.530;13.390;2023-04-06T03:33:36;4.40;99.90
19728;DHT22;10015;52.530;13.390;2023-04-06T03:36:03;4.50;99.90
19728;DHT22;10015;52.530;13.390;2023-04-06T03:38:35;4.60;99.90
19728;DHT22;10015;52.530;13.390;2023-04-06T03:41:07;4.60;99.90
19728;DHT22;10015;52.530;13.390;2023-04-06T03:43:33;4.70;99.90
19728;DHT22;10015;52.530;13.390;2023-04-06T03:45:59;4.70;99.90
19728;DHT22;10015;52.530;13.390;2023-04-06T03:48:25;4.80;99.90
19728;DHT22;10015;52.530;13.390;2023-04-06T03:50:51;4.70;99.90
19728;DHT22;10015;52.530;13.390;2023-04-06T03:53:17;4.80;99.90
19728;DHT22;10015;52.530;13.390;2023-04-06T03:55:44;4.90;99.90
19728;DHT22;10015;52.530;13.390;2023-04-06T03:58:10;4.90;99.90
19728;DHT22;10015;52.530;13.390;2023-04-06T04:00:36;4.90;99.90
19728;DHT22;10015;52.530;13.390;2023-04-06T04:03:02;4.70;99.90
19728;DHT22;10015;52.530;13.390;2023-04-06T04:05:28;4.80;99.90
19728;DHT22;10015;52.530;13.390;2023-04-06T04:07:54;4.80;99.90
19728;DHT22;10015;52.530;13.390;2023-04-06T04:10:28;4.70;99.90
19728;DHT22;10015;52.530;13.390;2023-04-06T04:12:54;4.70;99.90
19728;DHT22;10015;52.530;13.390;2023-04-06T04:15:21;4.60;99.90
19728;DHT22;10015;52.530;13.390;2023-04-06T04:17:47;4.40;99.90
19728;DHT22;10015;52.530;13.390;2023-04-06T04:20:15;4.50;99.90
19728;DHT22;10015;52.530;13.390;2023-04-06T04:22:42;4.70;99.90
19728;DHT22;10015;52.530;13.390;2023-04-06T04:25:09;4.60;99.90
19728;DHT22;10015;52.530;13.390;2023-04-06T04:27:41;4.70;99.90
19728;DHT22;10015;52.530;13.390;2023-04-06T04:30:07;4.50;99.90
19728;DHT22;10015;52.530;13.390;2023-04-06T04:32:33;4.30;99.90
19728;DHT22;10015;52.530;13.390;2023-04-06T04:35:02;4.20;99.90
19728;DHT22;10015;52.530;13.390;2023-04-06T04:37:36;4.20;99.90
19728;DHT22;10015;52.530;13.390;2023-04-06T04:40:03;4.30;99.90
19728;DHT22;10015;52.530;13.390;2023-04-06T04:42:34;4.10;99.90
19728;DHT22;10015;52.530;13.390;2023-04-06T04:45:01;4.00;99.90
19728;DHT22;10015;52.530;13.390;2023-04-06T04:47:35;3.90;99.90
19728;DHT22;10015;52.530;13.390;2023-04-06T04:50:02;4.00;99.90
19728;DHT22;10015;52.530;13.390;2023-04-06T04:52:30;4.00;99.90
19728;DHT22;10015;52.530;13.390;2023-04-06T04:55:14;3.80;99.90
19728;DHT22;10015;52.530;13.390;2023-04-06T04:57:43;3.80;99.90
19728;DHT22;10015;52.530;13.390;2023-04-06T05:00:10;3.90;99.90
19728;DHT22;10015;52.530;13.390;2023-04-06T05:02:40;3.80;99.90
19728;DHT22;10015;52.530;13.390;2023-04-06T05:05:27;3.80;99.90
19728;DHT22;10015;52.530;13.390;2023-04-06T05:07:54;3.90;99.90
19728;DHT22;10015;52.530;13.390;2023-04-06T05:10:41;3.80;99.90
19728;DHT22;10015;52.530;13.390;2023-04-06T05:13:08;3.70;99.90
19728;DHT22;10015;52.530;13.390;2023-04-06T05:15:34;3.70;99.90
19728;DHT22;10015;52.530;13.390;2023-04-06T05:18:07;3.60;99.90
19728;DHT22;10015;52.530;13.390;2023-04-06T05:20:35;3.70;99.90
19728;DHT22;10015;52.530;13.390;2023-04-06T05:23:02;3.80;99.90
19728;DHT22;10015;52.530;13.390;2023-04-06T05:25:29;4.00;99.90
19728;DHT22;10015;52.530;13.390;2023-04-06T05:28:02;3.80;99.90
19728;DHT22;10015;52.530;13.390;2023-04-06T05:30:31;4.00;99.90
19728;DHT22;10015;52.530;13.390;2023-04-06T05:32:58;4.20;99.90
19728;DHT22;10015;52.530;13.390;2023-04-06T05:35:29;4.40;99.90
19728;DHT22;10015;52.530;13.390;2023-04-06T05:38:00;4.30;99.90
19728;DHT22;10015;52.530;13.390;2023-04-06T05:40:27;4.40;99.90
19728;DHT22;10015;52.530;13.390;2023-04-06T05:42:53;4.80;99.90
19728;DHT22;10015;52.530;13.390;2023-04-06T05:45:20;5.20;99.90
19728;DHT22;10015;52.530;13.390;2023-04-06T05:47:51;5.80;99.90
19728;DHT22;10015;52.530;13.390;2023-04-06T05:50:23;6.50;99.90
19728;DHT22;10015;52.530;13.390;2023-04-06T05:52:50;7.00;99.90
19728;DHT22;10015;52.530;13.390;2023-04-06T05:55:19;7.10;99.90
19728;DHT22;10015;52.530;13.390;2023-04-06T05:57:50;7.40;99.90
19728;DHT22;10015;52.530;13.390;2023-04-06T06:00:18;7.80;99.90
19728;DHT22;10015;52.530;13.390;2023-04-06T06:02:54;8.30;99.90
19728;DHT22;10015;52.530;13.390;2023-04-06T06:05:24;8.80;99.90
19728;DHT22;10015;52.530;13.390;2023-04-06T06:07:50;9.10;99.90
19728;DHT22;10015;52.530;13.390;2023-04-06T06:10:17;9.30;99.90
19728;DHT22;10015;52.530;13.390;2023-04-06T06:12:43;9.50;99.90
19728;DHT22;10015;52.530;13.390;2023-04-06T06:15:09;9.30;99.90
19728;DHT22;10015;52.530;13.390;2023-04-06T06:17:40;9.50;99.90
19728;DHT22;10015;52.530;13.390;2023-04-06T06:20:08;9.70;99.90
19728;DHT22;10015;52.530;13.390;2023-04-06T06:22:35;10.00;99.90
19728;DHT22;10015;52.530;13.390;2023-04-06T06:25:02;10.20;99.90
19728;DHT22;10015;52.530;13.390;2023-04-06T06:27:28;10.30;99.90
19728;DHT22;10015;52.530;13.390;2023-04-06T06:29:55;10.30;99.90
19728;DHT22;10015;52.530;13.390;2023-04-06T06:32:22;10.50;99.90
19728;DHT22;10015;52.530;13.390;2023-04-06T06:34:51;10.60;99.90
19728;DHT22;10015;52.530;13.390;2023-04-06T06:37:18;10.80;99.90
19728;DHT22;10015;52.530;13.390;2023-04-06T06:39:47;11.10;99.90
19728;DHT22;10015;52.530;13.390;2023-04-06T06:42:13;11.30;99.90
19728;DHT22;10015;52.530;13.390;2023-04-06T06:44:52;11.50;99.90
19728;DHT22;10015;52.530;13.390;2023-04-06T06:47:18;11.60;99.90
19728;DHT22;10015;52.530;13.390;2023-04-06T06:49:44;11.90;99.90
19728;DHT22;10015;52.530;13.390;2023-04-06T06:52:10;12.10;99.90
19728;DHT22;10015;52.530;13.390;2023-04-06T06:54:37;12.10;99.90
19728;DHT22;10015;52.530;13.390;2023-04-06T06:57:03;12.20;99.90
19728;DHT22;10015;52.530;13.390;2023-04-06T06:59:29;12.40;99.90
19728;DHT22;10015;52.530;13.390;2023-04-06T07:01:56;12.50;99.90
19728;DHT22;10015;52.530;13.390;2023-04-06T07:04:22;12.70;99.90
19728;DHT22;10015;52.530;13.390;2023-04-06T07:06:48;12.80;99.90
19728;DHT22;10015;52.530;13.390;2023-04-06T07:09:14;12.90;99.90
19728;DHT22;10015;52.530;13.390;2023-04-06T07:11:40;13.10;99.90
19728;DHT22;10015;52.530;13.390;2023-04-06T07:14:06;13.30;99.90
19728;DHT22;10015;52.530;13.390;2023-04-06T07:16:33;13.50;99.90
19728;DHT22;10015;52.530;13.390;2023-04-06T07:18:59;13.60;99.90
19728;DHT22;10015;52.530;13.390;2023-04-06T07:21:31;13.70;99.90
19728;DHT22;10015;52.530;13.390;2023-04-06T07:24:01;13.80;99.90
19728;DHT22;10015;52.530;13.390;2023-04-06T07:26:32;13.50;99.90
19728;DHT22;10015;52.530;13.390;2023-04-06T07:28:58;13.50;99.90
19728;DHT22;10015;52.530;13.390;2023-04-06T07:31:25;13.70;99.90
19728;DHT22;10015;52.530;13.390;2023-04-06T07:33:52;13.80;99.90
19728;DHT22;10015;52.530;13.390;2023-04-06T07:36:20;13.80;99.90
19728;DHT22;10015;52.530;13.390;2023-04-06T07:38:47;13.80;99.90
19728;DHT22;10015;52.530;13.390;2023-04-06T07:41:15;13.50;99.90
19728;DHT22;10015;52.530;13.390;2023-04-06T07:43:42;13.60;99.90
19728;DHT22;10015;52.530;13.390;2023-04-06T07:46:09;13.80;99.90
19728;DHT22;10015;52.530;13.390;2023-04-06T07:48:36;14.00;99.90
19728;DHT22;10015;52.530;13.390;2023-04-06T07:51:07;13.60;99.90
19728;DHT22;10015;52.530;13.390;2023-04-06T07:53:50;13.40;99.90
19728;DHT22;10015;52.530;13.390;2023-04-06T07:56:19;13.70;99.90
19728;DHT22;10015;52.530;13.390;2023-04-06T07:58:49;13.70;99.90
19728;DHT22;10015;52.530;13.390;2023-04-06T08:01:16;13.90;99.90
19728;DHT22;10015;52.530;13.390;2023-04-06T08:03:42;14.10;99.90
19728;DHT22;10015;52.530;13.390;2023-04-06T08:06:08;14.30;99.30
19728;DHT22;10015;52.530;13.390;2023-04-06T08:08:34;14.50;99.00
19728;DHT22;10015;52.530;13.390;2023-04-06T08:11:01;14.80;98.70
19728;DHT22;10015;52.530;13.390;2023-04-06T08:13:28;15.00;97.70
19728;DHT22;10015;52.530;13.390;2023-04-06T08:15:55;14.90;97.10
19728;DHT22;10015;52.530;13.390;2023-04-06T08:18:24;15.00;96.80
19728;DHT22;10015;52.530;13.390;2023-04-06T08:20:50;15.10;96.50
19728;DHT22;10015;52.530;13.390;2023-04-06T08:23:20;15.10;96.00
19728;DHT22;10015;52.530;13.390;2023-04-06T08:25:46;14.30;95.50
19728;DHT22;10015;52.530;13.390;2023-04-06T08:28:23;14.20;95.00
19728;DHT22;10015;52.530;13.390;2023-04-06T08:30:49;13.90;96.40
19728;DHT22;10015;52.530;13.390;2023-04-06T08:33:16;14.20;96.60
19728;DHT22;10015;52.530;13.390;2023-04-06T08:35:43;14.40;94.90
19728;DHT22;10015;52.530;13.390;2023-04-06T08:38:12;14.40;95.50
19728;DHT22;10015;52.530;13.390;2023-04-06T08:40:48;14.90;94.60
19728;DHT22;10015;52.530;13.390;2023-04-06T08:43:17;14.70;93.40
19728;DHT22;10015;52.530;13.390;2023-04-06T08:45:48;14.80;93.30
19728;DHT22;10015;52.530;13.390;2023-04-06T08:48:15;13.90;92.30
19728;DHT22;10015;52.530;13.390;2023-04-06T08:50:47;13.60;92.60
19728;DHT22;10015;52.530;13.390;2023-04-06T08:53:14;13.10;92.60
19728;DHT22;10015;52.530;13.390;2023-04-06T08:55:43;13.20;93.50
19728;DHT22;10015;52.530;13.390;2023-04-06T08:58:14;13.60;93.20
19728;DHT22;10015;52.530;13.390;2023-04-06T09:00:41;13.80;91.90
19728;DHT22;10015;52.530;13.390;2023-04-06T09:03:09;14.10;92.50
19728;DHT22;10015;52.530;13.390;2023-04-06T09:05:38;14.40;91.70
19728;DHT22;10015;52.530;13.390;2023-04-06T09:08:06;13.80;90.50
19728;DHT22;10015;52.530;13.390;2023-04-06T09:10:32;14.00;91.40
19728;DHT22;10015;52.530;13.390;2023-04-06T09:13:12;14.10;91.10
19728;DHT22;10015;52.530;13.390;2023-04-06T09:15:39;14.30;90.10
19728;DHT22;10015;52.530;13.390;2023-04-06T09:18:52;14.30;90.10
19728;DHT22;10015;52.530;13.390;2023-04-06T09:21:31;13.70;88.80
19728;DHT22;10015;52.530;13.390;2023-04-06T09:24:08;13.60;90.00
19728;DHT22;10015;52.530;13.390;2023-04-06T09:26:47;13.70;89.20
19728;DHT22;10015;52.530;13.390;2023-04-06T09:29:31;13.30;89.20
19728;DHT22;10015;52.530;13.390;2023-04-06T09:38:28;14.00;87.70
19728;DHT22;10015;52.530;13.390;2023-04-06T09:41:03;14.20;87.20
19728;DHT22;10015;52.530;13.390;2023-04-06T09:43:38;14.30;86.50
19728;DHT22;10015;52.530;13.390;2023-04-06T09:46:05;14.20;87.20
19728;DHT22;10015;52.530;13.390;2023-04-06T09:48:55;14.30;86.80
19728;DHT22;10015;52.530;13.390;2023-04-06T09:52:00;14.60;85.40
19728;DHT22;10015;52.530;13.390;2023-04-06T09:54:38;14.60;86.10
19728;DHT22;10015;52.530;13.390;2023-04-06T09:57:29;15.00;84.80
19728;DHT22;10015;52.530;13.390;2023-04-06T10:00:32;14.70;84.20
19728;DHT22;10015;52.530;13.390;2023-04-06T10:06:19;14.70;84.20
19728;DHT22;10015;52.530;13.390;2023-04-06T10:08:54;14.60;82.30
19728;DHT22;10015;52.530;13.390;2023-04-06T10:11:26;14.50;82.00
19728;DHT22;10015;52.530;13.390;2023-04-06T10:13:53;14.60;81.60
19728;DHT22;10015;52.530;13.390;2023-04-06T10:16:52;14.10;78.80
19728;DHT22;10015;52.530;13.390;2023-04-06T10:19:54;14.20;77.80
19728;DHT22;10015;52.530;13.390;2023-04-06T10:22:48;14.70;77.40
19728;DHT22;10015;52.530;13.390;2023-04-06T10:25:40;14.80;76.00
19728;DHT22;10015;52.530;13.390;2023-04-06T10:28:18;14.10;77.70
19728;DHT22;10015;52.530;13.390;2023-04-06T10:31:32;14.70;77.30
19728;DHT22;10015;52.530;13.390;2023-04-06T10:33:59;14.60;77.20
19728;DHT22;10015;52.530;13.390;2023-04-06T10:36:33;15.30;77.70
19728;DHT22;10015;52.530;13.390;2023-04-06T10:42:24;15.30;75.70
19728;DHT22;10015;52.530;13.390;2023-04-06T10:45:45;15.60;73.80
19728;DHT22;10015;52.530;13.390;2023-04-06T10:49:20;14.90;72.70
19728;DHT22;10015;52.530;13.390;2023-04-06T10:51:56;14.80;73.40
19728;DHT22;10015;52.530;13.390;2023-04-06T11:06:58;14.90;72.40
19728;DHT22;10015;52.530;13.390;2023-04-06T11:19:05;15.00;72.40
19728;DHT22;10015;52.530;13.390;2023-04-06T11:21:50;15.40;70.90
19728;DHT22;10015;52.530;13.390;2023-04-06T11:24:43;15.30;70.50
19728;DHT22;10015;52.530;13.390;2023-04-06T11:30:56;14.90;71.90
19728;DHT22;10015;52.530;13.390;2023-04-06T11:38:03;15.30;70.40
19728;DHT22;10015;52.530;13.390;2023-04-06T11:40:53;15.10;70.70
19728;DHT22;10015;52.530;13.390;2023-04-06T11:43:37;14.90;70.00
19728;DHT22;10015;52.530;13.390;2023-04-06T11:46:09;15.00;70.90
19728;DHT22;10015;52.530;13.390;2023-04-06T11:48:44;15.20;71.30
19728;DHT22;10015;52.530;13.390;2023-04-06T11:51:52;14.80;71.10
19728;DHT22;10015;52.530;13.390;2023-04-06T11:55:25;14.90;72.00
19728;DHT22;10015;52.530;13.390;2023-04-06T11:57:57;14.30;72.90
19728;DHT22;10015;52.530;13.390;2023-04-06T12:00:23;14.10;72.50
19728;DHT22;10015;52.530;13.390;2023-04-06T12:03:33;13.90;72.00
19728;DHT22;10015;52.530;13.390;2023-04-06T12:06:07;14.00;72.20
19728;DHT22;10015;52.530;13.390;2023-04-06T12:11:59;14.40;72.30
19728;DHT22;10015;52.530;13.390;2023-04-06T12:14:26;14.40;72.20
19728;DHT22;10015;52.530;13.390;2023-04-06T12:17:02;14.50;72.10
19728;DHT22;10015;52.530;13.390;2023-04-06T12:19:49;14.60;71.10
19728;DHT22;10015;52.530;13.390;2023-04-06T12:22:15;14.10;71.60
19728;DHT22;10015;52.530;13.390;2023-04-06T12:24:41;14.00;72.10
19728;DHT22;10015;52.530;13.390;2023-04-06T12:27:07;14.10;72.10
19728;DHT22;10015;52.530;13.390;2023-04-06T12:29:34;14.50;71.60
19728;DHT22;10015;52.530;13.390;2023-04-06T12:32:01;14.40;71.20
19728;DHT22;10015;52.530;13.390;2023-04-06T12:34:27;14.10;70.50
19728;DHT22;10015;52.530;13.390;2023-04-06T12:36:53;13.40;71.80
19728;DHT22;10015;52.530;13.390;2023-04-06T12:39:19;13.70;72.40
19728;DHT22;10015;52.530;13.390;2023-04-06T12:41:46;14.10;72.00
19728;DHT22;10015;52.530;13.390;2023-04-06T12:44:12;13.90;71.20
19728;DHT22;10015;52.530;13.390;2023-04-06T12:46:38;13.80;72.40
19728;DHT22;10015;52.530;13.390;2023-04-06T12:49:04;14.00;72.60
19728;DHT22;10015;52.530;13.390;2023-04-06T12:51:30;13.50;72.10
19728;DHT22;10015;52.530;13.390;2023-04-06T12:54:00;13.70;72.70
19728;DHT22;10015;52.530;13.390;2023-04-06T12:56:26;14.00;72.70
19728;DHT22;10015;52.530;13.390;2023-04-06T12:58:54;14.10;72.40
19728;DHT22;10015;52.530;13.390;2023-04-06T13:01:21;14.40;72.70
19728;DHT22;10015;52.530;13.390;2023-04-06T13:03:47;14.60;72.20
19728;DHT22;10015;52.530;13.390;2023-04-06T13:06:13;14.30;71.50
19728;DHT22;10015;52.530;13.390;2023-04-06T13:08:40;14.40;71.70
19728;DHT22;10015;52.530;13.390;2023-04-06T13:11:07;14.10;72.10
19728;DHT22;10015;52.530;13.390;2023-04-06T13:13:36;14.10;71.70
19728;DHT22;10015;52.530;13.390;2023-04-06T13:16:06;14.40;71.60
19728;DHT22;10015;52.530;13.390;2023-04-06T13:18:34;14.40;71.00
19728;DHT22;10015;52.530;13.390;2023-04-06T13:21:01;13.80;71.70
19728;DHT22;10015;52.530;13.390;2023-04-06T13:23:27;14.10;72.50
19728;DHT22;10015;52.530;13.390;2023-04-06T13:26:01;14.30;72.90
19728;DHT22;10015;52.530;13.390;2023-04-06T13:28:29;14.00;74.10
19728;DHT22;10015;52.530;13.390;2023-04-06T13:30:57;13.80;74.90
19728;DHT22;10015;52.530;13.390;2023-04-06T13:33:23;13.50;76.20
19728;DHT22;10015;52.530;13.390;2023-04-06T13:35:50;13.40;76.00
19728;DHT22;10015;52.530;13.390;2023-04-06T13:38:16;13.60;76.20
19728;DHT22;10015;52.530;13.390;2023-04-06T13:40:42;13.80;76.00
19728;DHT22;10015;52.530;13.390;2023-04-06T13:43:08;13.60;75.60
19728;DHT22;10015;52.530;13.390;2023-04-06T13:45:35;13.30;76.40
19728;DHT22;10015;52.530;13.390;2023-04-06T13:48:01;13.20;76.40
19728;DHT22;10015;52.530;13.390;2023-04-06T13:50:28;13.10;76.80
19728;DHT22;10015;52.530;13.390;2023-04-06T13:52:55;13.40;76.80
19728;DHT22;10015;52.530;13.390;2023-04-06T13:55:22;13.50;75.90
19728;DHT22;10015;52.530;13.390;2023-04-06T13:57:50;13.60;75.70
19728;DHT22;10015;52.530;13.390;2023-04-06T14:00:17;13.50;75.50
19728;DHT22;10015;52.530;13.390;2023-04-06T14:02:43;13.60;76.20
19728;DHT22;10015;52.530;13.390;2023-04-06T14:05:10;13.80;76.20
19728;DHT22;10015;52.530;13.390;2023-04-06T14:07:36;14.00;75.80
19728;DHT22;10015;52.530;13.390;2023-04-06T14:10:02;14.00;75.30
19728;DHT22;10015;52.530;13.390;2023-04-06T14:12:29;12.80;75.70
19728;DHT22;10015;52.530;13.390;2023-04-06T14:14:55;12.50;77.50
19728;DHT22;10015;52.530;13.390;2023-04-06T14:17:21;12.30;78.20
19728;DHT22;10015;52.530;13.390;2023-04-06T14:19:47;12.30;78.00
19728;DHT22;10015;52.530;13.390;2023-04-06T14:22:14;12.60;77.80
19728;DHT22;10015;52.530;13.390;2023-04-06T14:24:40;12.80;77.80
19728;DHT22;10015;52.530;13.390;2023-04-06T14:27:07;12.90;77.90
19728;DHT22;10015;52.530;13.390;2023-04-06T14:29:32;12.90;77.80
19728;DHT22;10015;52.530;13.390;2023-04-06T14:31:58;13.20;77.30
19728;DHT22;10015;52.530;13.390;2023-04-06T14:34:27;13.40;76.60
19728;DHT22;10015;52.530;13.390;2023-04-06T14:36:53;13.40;76.20
19728;DHT22;10015;52.530;13.390;2023-04-06T14:39:19;13.20;76.10
19728;DHT22;10015;52.530;13.390;2023-04-06T14:41:45;12.90;77.10
19728;DHT22;10015;52.530;13.390;2023-04-06T14:44:16;12.80;76.70
19728;DHT22;10015;52.530;13.390;2023-04-06T14:46:42;13.20;76.80
19728;DHT22;10015;52.530;13.390;2023-04-06T14:49:08;13.10;76.60
19728;DHT22;10015;52.530;13.390;2023-04-06T14:51:34;13.10;77.00
19728;DHT22;10015;52.530;13.390;2023-04-06T14:54:01;13.10;77.00
19728;DHT22;10015;52.530;13.390;2023-04-06T14:56:30;12.80;77.10
19728;DHT22;10015;52.530;13.390;2023-04-06T14:59:00;12.50;76.40
19728;DHT22;10015;52.530;13.390;2023-04-06T15:01:29;12.10;77.20
19728;DHT22;10015;52.530;13.390;2023-04-06T15:03:55;12.00;77.40
19728;DHT22;10015;52.530;13.390;2023-04-06T15:06:21;11.80;78.10
19728;DHT22;10015;52.530;13.390;2023-04-06T15:08:48;12.10;78.00
19728;DHT22;10015;52.530;13.390;2023-04-06T15:11:14;11.90;78.10
19728;DHT22;10015;52.530;13.390;2023-04-06T15:13:41;11.80;78.10
19728;DHT22;10015;52.530;13.390;2023-04-06T15:16:07;11.70;78.60
19728;DHT22;10015;52.530;13.390;2023-04-06T15:18:34;11.80;78.80
19728;DHT22;10015;52.530;13.390;2023-04-06T15:21:01;11.80;78.50
19728;DHT22;10015;52.530;13.390;2023-04-06T15:23:27;11.50;78.90
19728;DHT22;10015;52.530;13.390;2023-04-06T15:25:57;11.90;79.20
19728;DHT22;10015;52.530;13.390;2023-04-06T15:28:23;12.10;78.60
19728;DHT22;10015;52.530;13.390;2023-04-06T15:30:49;12.00;78.20
19728;DHT22;10015;52.530;13.390;2023-04-06T15:33:16;11.80;79.00
19728;DHT22;10015;52.530;13.390;2023-04-06T15:35:43;11.80;79.30
19728;DHT22;10015;52.530;13.390;2023-04-06T15:38:09;11.70;79.20
19728;DHT22;10015;52.530;13.390;2023-04-06T15:40:46;11.70;79.40
19728;DHT22;10015;52.530;13.390;2023-04-06T15:43:13;11.60;79.20
19728;DHT22;10015;52.530;13.390;2023-04-06T15:45:40;11.50;79.60
19728;DHT22;10015;52.530;13.390;2023-04-06T15:48:06;11.50;79.40
19728;DHT22;10015;52.530;13.390;2023-04-06T15:50:33;11.60;79.80
19728;DHT22;10015;52.530;13.390;2023-04-06T15:52:59;11.70;79.40
19728;DHT22;10015;52.530;13.390;2023-04-06T15:55:25;11.70;79.30
19728;DHT22;10015;52.530;13.390;2023-04-06T15:57:51;11.80;78.90
19728;DHT22;10015;52.530;13.390;2023-04-06T16:00:17;12.00;78.80
19728;DHT22;10015;52.530;13.390;2023-04-06T16:02:43;11.40;79.50
19728;DHT22;10015;52.530;13.390;2023-04-06T16:05:09;11.30;79.80
19728;DHT22;10015;52.530;13.390;2023-04-06T16:07:35;11.30;80.10
19728;DHT22;10015;52.530;13.390;2023-04-06T16:10:03;11.60;80.30
19728;DHT22;10015;52.530;13.390;2023-04-06T16:12:29;11.60;79.80
19728;DHT22;10015;52.530;13.390;2023-04-06T16:14:57;11.90;79.40
19728;DHT22;10015;52.530;13.390;2023-04-06T16:17:23;12.10;79.60
19728;DHT22;10015;52.530;13.390;2023-04-06T16:19:49;12.10;79.40
19728;DHT22;10015;52.530;13.390;2023-04-06T16:22:15;12.10;79.50
19728;DHT22;10015;52.530;13.390;2023-04-06T16:24:41;12.10;79.10
19728;DHT22;10015;52.530;13.390;2023-04-06T16:27:07;12.10;79.10
19728;DHT22;10015;52.530;13.390;2023-04-06T16:29:34;11.90;79.60
19728;DHT22;10015;52.530;13.390;2023-04-06T16:32:02;11.70;80.10